Terminal Aerodrome Forecast
Issued by NWS Jacksonville, FL

Home | Current Version | Previous Version | Text Only | Print | Product List | Glossary On
Versions: 1 2 3 4 5 6 7 8 9 10 11 12 13 14 15 16 17 18 19 20
000
FTUS42 KJAX 012300
TAFSSI
TAF
KSSI 012337Z 0200/0224 12010KT P6SM VCTS BKN025CB BKN050
     FM020200 14005KT P6SM SCT030 BKN200
     FM021600 10009KT P6SM VCTS SCT020CB BKN100=

USA.gov is the U.S. government's official web portal to all federal, state and local government web resources and services.